createdAt,value
2023-06-11T00:00:02.033Z,94781.00
2023-06-11T00:01:02.028Z,94780.00
2023-06-11T00:02:02.079Z,94781.00
2023-06-11T00:03:02.133Z,94782.00
2023-06-11T00:04:02.228Z,94784.00
2023-06-11T00:05:02.138Z,94786.00
2023-06-11T00:06:02.161Z,94786.00
2023-06-11T00:07:02.311Z,94786.00
2023-06-11T00:08:02.357Z,94788.00
2023-06-11T00:09:02.304Z,94792.00
2023-06-11T00:10:02.307Z,94790.00
2023-06-11T00:11:02.346Z,94790.00
2023-06-11T00:12:02.433Z,94790.00
2023-06-11T00:13:02.452Z,94790.00
2023-06-11T00:14:02.476Z,94788.00
2023-06-11T00:15:02.567Z,94788.00
2023-06-11T00:16:02.636Z,94788.00
2023-06-11T00:17:02.659Z,94788.00
2023-06-11T00:18:02.819Z,94788.00
2023-06-11T00:19:02.690Z,94784.00
2023-06-11T00:20:02.759Z,94781.00
2023-06-11T00:21:02.789Z,94779.00
2023-06-11T00:22:02.813Z,94778.00
2023-06-11T00:23:02.864Z,94778.00
2023-06-11T00:24:02.847Z,94779.00
2023-06-11T00:25:02.877Z,94778.00
2023-06-11T00:26:02.865Z,94780.00
2023-06-11T00:27:02.980Z,94782.00
2023-06-11T00:28:02.950Z,94781.00
2023-06-11T00:29:02.925Z,94781.00
2023-06-11T00:30:02.971Z,94782.00
2023-06-11T00:31:03.061Z,94783.00
2023-06-11T00:32:03.181Z,94782.00
2023-06-11T00:33:03.217Z,94782.00
2023-06-11T00:34:03.239Z,94785.00
2023-06-11T00:35:03.232Z,94785.00
2023-06-11T00:36:03.279Z,94784.00
2023-06-11T00:37:03.292Z,94787.00
2023-06-11T00:38:03.359Z,94788.00
2023-06-11T00:39:03.420Z,94788.00
2023-06-11T00:40:03.470Z,94789.00
2023-06-11T00:41:03.503Z,94790.00
2023-06-11T00:42:03.539Z,94792.00
2023-06-11T00:43:03.594Z,94788.00
2023-06-11T00:44:03.598Z,94790.00
2023-06-11T00:45:03.605Z,94792.00
2023-06-11T00:46:03.858Z,94791.00
2023-06-11T00:47:03.676Z,94793.00
2023-06-11T00:48:03.753Z,94794.00
2023-06-11T00:49:03.737Z,94793.00
2023-06-11T00:50:03.738Z,94792.00
2023-06-11T00:51:03.751Z,94791.00
2023-06-11T00:52:03.765Z,94790.00
2023-06-11T00:53:03.776Z,94791.00
2023-06-11T00:54:03.859Z,94790.00
2023-06-11T00:55:03.800Z,94789.00
2023-06-11T00:56:03.836Z,94788.00
2023-06-11T00:57:03.843Z,94786.00
2023-06-11T00:58:03.880Z,94787.00
2023-06-11T00:59:03.877Z,94786.00
2023-06-11T01:00:03.920Z,94785.00
2023-06-11T01:01:04.009Z,94788.00
2023-06-11T01:02:04.038Z,94789.00
2023-06-11T01:03:04.125Z,94790.00
2023-06-11T01:04:04.156Z,94792.00
2023-06-11T01:05:04.198Z,94790.00
2023-06-11T01:06:04.107Z,94792.00
2023-06-11T01:07:04.183Z,94791.00
2023-06-11T01:08:04.184Z,94789.00
2023-06-11T01:09:04.236Z,94791.00
2023-06-11T01:10:04.238Z,94790.00
2023-06-11T01:11:04.287Z,94789.00
2023-06-11T01:12:04.310Z,94790.00
2023-06-11T01:13:04.305Z,94789.00
2023-06-11T01:14:04.336Z,94788.00
2023-06-11T01:15:04.416Z,94787.00
2023-06-11T01:16:04.468Z,94787.00
2023-06-11T01:17:04.505Z,94783.00
2023-06-11T01:18:04.568Z,94787.00
2023-06-11T01:19:04.584Z,94789.00
2023-06-11T01:20:04.584Z,94789.00
2023-06-11T01:21:04.590Z,94788.00
2023-06-11T01:22:04.619Z,94789.00
2023-06-11T01:23:04.640Z,94790.00
2023-06-11T01:24:04.717Z,94791.00
2023-06-11T01:25:04.719Z,94793.00
2023-06-11T01:26:04.719Z,94797.00
2023-06-11T01:27:04.793Z,94801.00
2023-06-11T01:28:04.856Z,94803.00
2023-06-11T01:29:04.907Z,94803.00
2023-06-11T01:30:04.948Z,94805.00
2023-06-11T01:31:05.048Z,94807.00
2023-06-11T01:32:05.098Z,94808.00
2023-06-11T01:33:05.132Z,94809.00
2023-06-11T01:34:05.153Z,94811.00
2023-06-11T01:35:06.118Z,94810.00
2023-06-11T01:36:05.156Z,94809.00
2023-06-11T01:37:05.213Z,94809.00
2023-06-11T01:38:05.302Z,94810.00
2023-06-11T01:39:05.303Z,94809.00
2023-06-11T01:40:05.431Z,94808.00
2023-06-11T01:41:05.376Z,94807.00
2023-06-11T01:42:05.441Z,94806.00
2023-06-11T01:43:05.420Z,94806.00
2023-06-11T01:44:05.468Z,94808.00
2023-06-11T01:45:05.487Z,94808.00
2023-06-11T01:46:05.521Z,94811.00
2023-06-11T01:47:05.615Z,94810.00
2023-06-11T01:48:05.663Z,94810.00
2023-06-11T01:49:05.721Z,94810.00
2023-06-11T01:50:05.657Z,94810.00
2023-06-11T01:51:05.702Z,94808.00
2023-06-11T01:52:05.670Z,94809.00
2023-06-11T01:53:05.696Z,94810.00
2023-06-11T01:54:05.707Z,94808.00
2023-06-11T01:55:05.764Z,94807.00
2023-06-11T01:56:05.759Z,94807.00
2023-06-11T01:57:05.815Z,94807.00
2023-06-11T01:58:05.833Z,94809.00
2023-06-11T01:59:05.841Z,94808.00
2023-06-11T02:00:05.872Z,94808.00
2023-06-11T02:01:05.891Z,94807.00
2023-06-11T02:02:06.015Z,94807.00
2023-06-11T02:03:05.982Z,94810.00
2023-06-11T02:04:06.036Z,94812.00
2023-06-11T02:05:06.064Z,94815.00
2023-06-11T02:06:06.114Z,94815.00
2023-06-11T02:07:06.151Z,94816.00
2023-06-11T02:08:06.175Z,94818.00
2023-06-11T02:09:06.187Z,94817.00
2023-06-11T02:10:06.221Z,94817.00
2023-06-11T02:11:06.260Z,94816.00
2023-06-11T02:12:06.240Z,94816.00
2023-06-11T02:13:06.273Z,94815.00
2023-06-11T02:14:06.316Z,94817.00
2023-06-11T02:15:06.339Z,94816.00
2023-06-11T02:16:06.371Z,94820.00
2023-06-11T02:17:06.449Z,94819.00
2023-06-11T02:18:06.445Z,94822.00
2023-06-11T02:19:06.465Z,94821.00
2023-06-11T02:20:06.485Z,94822.00
2023-06-11T02:21:06.481Z,94823.00
2023-06-11T02:22:06.488Z,94826.00
2023-06-11T02:23:06.559Z,94828.00
2023-06-11T02:24:06.567Z,94828.00
2023-06-11T02:25:06.557Z,94829.00
2023-06-11T02:26:06.638Z,94830.00
2023-06-11T02:27:06.625Z,94828.00
2023-06-11T02:28:06.654Z,94828.00
2023-06-11T02:29:06.654Z,94830.00
2023-06-11T02:30:06.702Z,94831.00
2023-06-11T02:31:06.765Z,94829.00
2023-06-11T02:32:06.891Z,94829.00
2023-06-11T02:33:06.921Z,94830.00
2023-06-11T02:34:06.865Z,94830.00
2023-06-11T02:35:06.853Z,94832.00
2023-06-11T02:36:06.882Z,94834.00
2023-06-11T02:37:06.902Z,94835.00
2023-06-11T02:38:06.908Z,94831.00
2023-06-11T02:39:06.976Z,94830.00
2023-06-11T02:40:06.984Z,94832.00
2023-06-11T02:41:06.978Z,94834.00
2023-06-11T02:42:07.055Z,94831.00
2023-06-11T02:43:07.019Z,94832.00
2023-06-11T02:44:07.057Z,94835.00
2023-06-11T02:45:07.070Z,94835.00
2023-06-11T02:46:07.166Z,94835.00
2023-06-11T02:47:07.127Z,94833.00
2023-06-11T02:48:07.221Z,94834.00
2023-06-11T02:49:07.189Z,94835.00
2023-06-11T02:50:07.232Z,94833.00
2023-06-11T02:51:07.314Z,94832.00
2023-06-11T02:52:07.308Z,94831.00
2023-06-11T02:53:07.328Z,94830.00
2023-06-11T02:54:07.353Z,94831.00
2023-06-11T02:55:07.386Z,94832.00
2023-06-11T02:56:07.377Z,94830.00
2023-06-11T02:57:07.390Z,94829.00
2023-06-11T02:58:07.428Z,94829.00
2023-06-11T02:59:07.477Z,94829.00
2023-06-11T03:00:07.534Z,94831.00
2023-06-11T03:01:07.564Z,94830.00
2023-06-11T03:02:07.555Z,94828.00
2023-06-11T03:03:07.641Z,94832.00
2023-06-11T03:04:07.718Z,94830.00
2023-06-11T03:05:07.816Z,94832.00
2023-06-11T03:06:07.756Z,94832.00
2023-06-11T03:07:07.755Z,94832.00
2023-06-11T03:08:07.803Z,94832.00
2023-06-11T03:09:07.818Z,94835.00
2023-06-11T03:10:07.856Z,94835.00
2023-06-11T03:11:07.905Z,94834.00
2023-06-11T03:12:07.858Z,94837.00
2023-06-11T03:13:07.947Z,94836.00
2023-06-11T03:14:07.916Z,94839.00
2023-06-11T03:15:08.048Z,94836.00
2023-06-11T03:16:08.008Z,94841.00
2023-06-11T03:17:08.015Z,94843.00
2023-06-11T03:18:08.006Z,94844.00
2023-06-11T03:19:08.039Z,94844.00
2023-06-11T03:20:08.047Z,94845.00
2023-06-11T03:21:08.044Z,94845.00
2023-06-11T03:22:08.090Z,94846.00
2023-06-11T03:23:08.101Z,94848.00
2023-06-11T03:24:08.214Z,94846.00
2023-06-11T03:25:08.321Z,94844.00
2023-06-11T03:26:08.153Z,94844.00
2023-06-11T03:27:08.164Z,94842.00
2023-06-11T03:28:08.241Z,94845.00
2023-06-11T03:29:08.273Z,94846.00
2023-06-11T03:30:08.347Z,94847.00
2023-06-11T03:31:08.370Z,94847.00
2023-06-11T03:32:10.494Z,94847.00
2023-06-11T03:33:08.438Z,94847.00
2023-06-11T03:34:08.376Z,94848.00
2023-06-11T03:35:08.737Z,94850.00
2023-06-11T03:36:08.388Z,94850.00
2023-06-11T03:37:08.360Z,94852.00
2023-06-11T03:38:08.331Z,94851.00
2023-06-11T03:39:08.362Z,94853.00
2023-06-11T03:40:08.348Z,94852.00
2023-06-11T03:41:08.358Z,94854.00
2023-06-11T03:42:08.332Z,94854.00
2023-06-11T03:43:08.332Z,94853.00
2023-06-11T03:44:08.278Z,94854.00
2023-06-11T03:45:08.345Z,94852.00
2023-06-11T03:46:08.269Z,94853.00
2023-06-11T03:47:08.295Z,94849.00
2023-06-11T03:48:08.714Z,94852.00
2023-06-11T03:49:08.274Z,94851.00
2023-06-11T03:50:08.273Z,94852.00
2023-06-11T03:51:08.232Z,94853.00
2023-06-11T03:52:08.223Z,94855.00
2023-06-11T03:53:08.236Z,94854.00
2023-06-11T03:54:08.260Z,94856.00
2023-06-11T03:55:08.576Z,94855.00
2023-06-11T03:56:08.259Z,94857.00
2023-06-11T03:57:08.220Z,94857.00
2023-06-11T03:58:08.235Z,94858.00
2023-06-11T03:59:08.197Z,94856.00
2023-06-11T04:00:08.177Z,94856.00
2023-06-11T04:01:08.183Z,94857.00
2023-06-11T04:02:08.215Z,94857.00
2023-06-11T04:03:08.490Z,94861.00
2023-06-11T04:04:08.247Z,94858.00
2023-06-11T04:05:08.529Z,94858.00
2023-06-11T04:06:08.236Z,94863.00
2023-06-11T04:07:08.281Z,94861.00
2023-06-11T04:08:08.768Z,94862.00
2023-06-11T04:09:08.338Z,94864.00
2023-06-11T04:10:08.460Z,94864.00
2023-06-11T04:11:08.516Z,94861.00
2023-06-11T04:12:08.462Z,94866.00
2023-06-11T04:13:08.529Z,94866.00
2023-06-11T04:14:08.594Z,94862.00
2023-06-11T04:15:08.907Z,94864.00
2023-06-11T04:16:08.610Z,94865.00
2023-06-11T04:17:08.686Z,94866.00
2023-06-11T04:18:08.782Z,94865.00
2023-06-11T04:19:08.748Z,94865.00
2023-06-11T04:20:08.794Z,94864.00
2023-06-11T04:21:08.776Z,94864.00
2023-06-11T04:22:08.733Z,94863.00
2023-06-11T04:23:08.796Z,94862.00
2023-06-11T04:24:09.749Z,94865.00
2023-06-11T04:25:09.161Z,94864.00
2023-06-11T04:26:09.078Z,94865.00
2023-06-11T04:27:09.012Z,94863.00
2023-06-11T04:28:09.033Z,94865.00
2023-06-11T04:29:09.092Z,94864.00
2023-06-11T04:30:09.168Z,94866.00
2023-06-11T04:31:09.195Z,94867.00
2023-06-11T04:32:09.236Z,94867.00
2023-06-11T04:33:09.354Z,94870.00
2023-06-11T04:34:09.300Z,94869.00
2023-06-11T04:35:10.099Z,94869.00
2023-06-11T04:36:09.299Z,94869.00
2023-06-11T04:37:09.339Z,94868.00
2023-06-11T04:38:09.278Z,94870.00
2023-06-11T04:39:09.271Z,94872.00
2023-06-11T04:40:09.295Z,94873.00
2023-06-11T04:41:09.304Z,94874.00
2023-06-11T04:42:09.268Z,94874.00
2023-06-11T04:43:09.261Z,94876.00
2023-06-11T04:44:09.274Z,94876.00
2023-06-11T04:45:09.480Z,94877.00
2023-06-11T04:46:09.248Z,94877.00
2023-06-11T04:47:09.243Z,94876.00
2023-06-11T04:48:09.227Z,94876.00
2023-06-11T04:49:09.259Z,94877.00
2023-06-11T04:50:09.199Z,94877.00
2023-06-11T04:51:09.206Z,94878.00
2023-06-11T04:52:09.227Z,94876.00
2023-06-11T04:53:09.206Z,94877.00
2023-06-11T04:54:09.185Z,94876.00
2023-06-11T04:55:09.565Z,94878.00
2023-06-11T04:56:09.157Z,94876.00
2023-06-11T04:57:09.150Z,94877.00
2023-06-11T04:58:09.135Z,94878.00
2023-06-11T04:59:09.164Z,94876.00
2023-06-11T05:00:09.379Z,94879.00
2023-06-11T05:01:09.137Z,94879.00
2023-06-11T05:02:09.152Z,94880.00
2023-06-11T05:03:09.238Z,94878.00
2023-06-11T05:04:09.092Z,94877.00
2023-06-11T05:05:09.408Z,94874.00
2023-06-11T05:06:09.102Z,94873.00
2023-06-11T05:07:09.131Z,94872.00
2023-06-11T05:08:09.084Z,94874.00
2023-06-11T05:09:09.110Z,94872.00
2023-06-11T05:10:09.082Z,94872.00
2023-06-11T05:11:09.081Z,94872.00
2023-06-11T05:12:09.059Z,94872.00
2023-06-11T05:13:09.069Z,94870.00
2023-06-11T05:14:09.066Z,94868.00
2023-06-11T05:16:09.043Z,94864.00
2023-06-11T05:17:09.039Z,94863.00
2023-06-11T05:18:09.089Z,94862.00
2023-06-11T05:19:09.023Z,94862.00
2023-06-11T05:20:09.073Z,94860.00
2023-06-11T05:21:09.018Z,94861.00
2023-06-11T05:22:09.036Z,94862.00
2023-06-11T05:23:08.977Z,94864.00
2023-06-11T05:24:09.271Z,94864.00
2023-06-11T05:25:09.144Z,94865.00
2023-06-11T05:26:08.953Z,94863.00
2023-06-11T05:27:08.967Z,94860.00
2023-06-11T05:28:08.960Z,94860.00
2023-06-11T05:29:08.974Z,94861.00
2023-06-11T05:30:08.933Z,94861.00
2023-06-11T05:31:08.926Z,94860.00
2023-06-11T05:32:08.972Z,94859.00
2023-06-11T05:33:08.929Z,94862.00
2023-06-11T05:34:08.905Z,94863.00
2023-06-11T05:35:09.132Z,94864.00
2023-06-11T05:36:08.871Z,94863.00
2023-06-11T05:37:08.934Z,94863.00
2023-06-11T05:38:09.283Z,94863.00
2023-06-11T05:39:08.922Z,94867.00
2023-06-11T05:40:08.951Z,94868.00
2023-06-11T05:41:08.953Z,94867.00
2023-06-11T05:42:09.013Z,94868.00
2023-06-11T05:43:09.041Z,94867.00
2023-06-11T05:44:09.037Z,94864.00
2023-06-11T05:45:09.276Z,94865.00
2023-06-11T05:46:09.118Z,94864.00
2023-06-11T05:47:09.171Z,94864.00
2023-06-11T05:48:09.213Z,94862.00
2023-06-11T05:49:09.199Z,94863.00
2023-06-11T05:50:09.252Z,94860.00
2023-06-11T05:51:09.294Z,94859.00
2023-06-11T05:52:09.281Z,94860.00
2023-06-11T05:53:09.287Z,94854.00
2023-06-11T05:54:09.281Z,94855.00
2023-06-11T05:55:09.628Z,94853.00
2023-06-11T05:56:09.350Z,94854.00
2023-06-11T05:57:09.418Z,94855.00
2023-06-11T05:58:09.417Z,94856.00
2023-06-11T05:59:09.489Z,94854.00
2023-06-11T06:00:09.471Z,94851.00
2023-06-11T06:01:09.547Z,94855.00
2023-06-11T06:02:09.700Z,94854.00
2023-06-11T06:03:09.747Z,94852.00
2023-06-11T06:04:09.749Z,94855.00
2023-06-11T06:05:10.025Z,94856.00
2023-06-11T06:06:09.672Z,94855.00
2023-06-11T06:07:09.744Z,94857.00
2023-06-11T06:08:09.755Z,94857.00
2023-06-11T06:09:09.780Z,94859.00
2023-06-11T06:10:09.811Z,94857.00
2023-06-11T06:11:09.872Z,94858.00
2023-06-11T06:12:09.891Z,94861.00
2023-06-11T06:13:09.933Z,94863.00
2023-06-11T06:14:09.999Z,94863.00
2023-06-11T06:15:10.328Z,94861.00
2023-06-11T06:16:10.046Z,94860.00
2023-06-11T06:17:10.011Z,94860.00
2023-06-11T06:18:10.148Z,94859.00
2023-06-11T06:19:10.187Z,94858.00
2023-06-11T06:20:10.195Z,94858.00
2023-06-11T06:21:10.198Z,94859.00
2023-06-11T06:22:10.282Z,94860.00
2023-06-11T06:23:10.255Z,94861.00
2023-06-11T06:24:10.322Z,94858.00
2023-06-11T06:25:10.469Z,94858.00
2023-06-11T06:26:10.330Z,94861.00
2023-06-11T06:27:10.411Z,94863.00
2023-06-11T06:28:10.421Z,94864.00
2023-06-11T06:29:10.431Z,94864.00
2023-06-11T06:30:10.452Z,94863.00
2023-06-11T06:31:10.568Z,94862.00
2023-06-11T06:32:10.625Z,94862.00
2023-06-11T06:33:10.574Z,94862.00
2023-06-11T06:34:10.602Z,94862.00
2023-06-11T06:35:10.936Z,94864.00
2023-06-11T06:36:10.707Z,94866.00
2023-06-11T06:37:10.722Z,94865.00
2023-06-11T06:38:10.788Z,94863.00
2023-06-11T06:39:10.798Z,94863.00
2023-06-11T06:40:11.018Z,94866.00
2023-06-11T06:41:10.837Z,94868.00
2023-06-11T06:42:10.914Z,94864.00
2023-06-11T06:43:10.921Z,94864.00
2023-06-11T06:44:10.975Z,94865.00
2023-06-11T06:45:11.937Z,94869.00
2023-06-11T06:46:10.995Z,94867.00
2023-06-11T06:47:10.973Z,94866.00
2023-06-11T06:48:11.111Z,94869.00
2023-06-11T06:49:10.966Z,94865.00
2023-06-11T06:50:11.194Z,94866.00
2023-06-11T06:51:10.990Z,94865.00
2023-06-11T06:52:10.920Z,94865.00
2023-06-11T06:53:10.930Z,94864.00
2023-06-11T06:54:10.938Z,94864.00
2023-06-11T06:55:10.968Z,94867.00
2023-06-11T06:56:10.928Z,94866.00
2023-06-11T06:57:10.941Z,94867.00
2023-06-11T06:58:10.930Z,94867.00
2023-06-11T06:59:10.942Z,94861.00
2023-06-11T07:00:11.185Z,94862.00
2023-06-11T07:01:10.929Z,94862.00
2023-06-11T07:02:10.895Z,94860.00
2023-06-11T07:03:10.911Z,94860.00
2023-06-11T07:04:10.867Z,94857.00
2023-06-11T07:05:10.886Z,94860.00
2023-06-11T07:06:10.906Z,94860.00
2023-06-11T07:07:10.843Z,94859.00
2023-06-11T07:08:10.825Z,94859.00
2023-06-11T07:09:10.840Z,94855.00
2023-06-11T07:10:11.154Z,94858.00
2023-06-11T07:11:10.865Z,94858.00
2023-06-11T07:12:10.821Z,94858.00
2023-06-11T07:13:10.831Z,94857.00
2023-06-11T07:14:10.801Z,94862.00
2023-06-11T07:15:10.840Z,94860.00
2023-06-11T07:16:10.866Z,94861.00
2023-06-11T07:17:10.774Z,94863.00
2023-06-11T07:18:10.816Z,94866.00
2023-06-11T07:19:10.744Z,94862.00
2023-06-11T07:20:11.095Z,94862.00
2023-06-11T07:21:10.886Z,94861.00
2023-06-11T07:22:10.758Z,94861.00
2023-06-11T07:23:10.728Z,94861.00
2023-06-11T07:24:10.768Z,94863.00
2023-06-11T07:25:10.744Z,94862.00
2023-06-11T07:26:10.736Z,94861.00
2023-06-11T07:27:10.705Z,94859.00
2023-06-11T07:28:10.702Z,94858.00
2023-06-11T07:29:12.786Z,94859.00
2023-06-11T07:30:10.939Z,94857.00
2023-06-11T07:31:10.681Z,94857.00
2023-06-11T07:32:10.762Z,94854.00
2023-06-11T07:33:10.807Z,94856.00
2023-06-11T07:34:10.825Z,94854.00
2023-06-11T07:35:10.806Z,94850.00
2023-06-11T07:36:10.861Z,94859.00
2023-06-11T07:37:10.876Z,94853.00
2023-06-11T07:38:10.936Z,94854.00
2023-06-11T07:39:10.912Z,94850.00
2023-06-11T07:40:11.244Z,94851.00
2023-06-11T07:41:11.003Z,94852.00
2023-06-11T07:42:11.023Z,94851.00
2023-06-11T07:43:11.058Z,94848.00
2023-06-11T07:44:11.041Z,94844.00
2023-06-11T07:45:11.148Z,94847.00
2023-06-11T07:46:12.807Z,94846.00
2023-06-11T07:47:11.158Z,94847.00
2023-06-11T07:48:11.242Z,94845.00
2023-06-11T07:49:11.203Z,94839.00
2023-06-11T07:50:11.283Z,94840.00
2023-06-11T07:51:11.237Z,94840.00
2023-06-11T07:52:11.251Z,94837.00
2023-06-11T07:53:11.269Z,94842.00
2023-06-11T07:54:11.295Z,94837.00
2023-06-11T07:55:11.326Z,94838.00
2023-06-11T07:56:11.340Z,94839.00
2023-06-11T07:57:11.352Z,94835.00
2023-06-11T07:58:11.357Z,94831.00
2023-06-11T07:59:11.383Z,94833.00
2023-06-11T08:00:11.726Z,94831.00
2023-06-11T08:01:11.478Z,94826.00
2023-06-11T08:02:11.600Z,94819.00
2023-06-11T08:03:11.599Z,94818.00
2023-06-11T08:04:11.585Z,94817.00
2023-06-11T08:05:11.633Z,94819.00
2023-06-11T08:06:11.824Z,94815.00
2023-06-11T08:07:11.708Z,94813.00
2023-06-11T08:08:11.719Z,94813.00
2023-06-11T08:09:11.740Z,94811.00
2023-06-11T08:10:11.893Z,94815.00
2023-06-11T08:11:11.812Z,94814.00
2023-06-11T08:12:11.829Z,94812.00
2023-06-11T08:13:11.871Z,94810.00
2023-06-11T08:14:11.932Z,94806.00
2023-06-11T08:15:12.001Z,94805.00
2023-06-11T08:16:12.053Z,94805.00
2023-06-11T08:17:12.090Z,94805.00
2023-06-11T08:18:12.110Z,94807.00
2023-06-11T08:19:12.094Z,94805.00
2023-06-11T08:20:12.362Z,94803.00
2023-06-11T08:21:12.174Z,94800.00
2023-06-11T08:22:12.179Z,94800.00
2023-06-11T08:23:12.181Z,94800.00
2023-06-11T08:24:12.302Z,94796.00
2023-06-11T08:25:12.300Z,94796.00
2023-06-11T08:26:12.309Z,94793.00
2023-06-11T08:27:12.322Z,94793.00
2023-06-11T08:28:12.357Z,94791.00
2023-06-11T08:29:12.427Z,94794.00
2023-06-11T08:30:12.626Z,94790.00
2023-06-11T08:31:12.490Z,94790.00
2023-06-11T08:32:12.567Z,94788.00
2023-06-11T08:33:12.573Z,94788.00
2023-06-11T08:34:12.584Z,94789.00
2023-06-11T08:35:12.653Z,94785.00
2023-06-11T08:36:12.563Z,94787.00
2023-06-11T08:37:12.611Z,94787.00
2023-06-11T08:38:12.642Z,94786.00
2023-06-11T08:39:12.646Z,94786.00
2023-06-11T08:40:12.897Z,94785.00
2023-06-11T08:41:12.719Z,94790.00
2023-06-11T08:42:12.716Z,94790.00
2023-06-11T08:43:12.776Z,94789.00
2023-06-11T08:44:12.844Z,94782.00
2023-06-11T08:45:12.906Z,94783.00
2023-06-11T08:46:12.889Z,94781.00
2023-06-11T08:47:12.892Z,94780.00
2023-06-11T08:48:12.974Z,94775.00
2023-06-11T08:49:12.979Z,94779.00
2023-06-11T08:50:13.133Z,94773.00
2023-06-11T08:51:13.021Z,94773.00
2023-06-11T08:52:13.069Z,94769.00
2023-06-11T08:53:13.025Z,94772.00
2023-06-11T08:54:13.048Z,94770.00
2023-06-11T08:55:13.105Z,94769.00
2023-06-11T08:56:13.122Z,94769.00
2023-06-11T08:57:13.155Z,94764.00
2023-06-11T08:58:13.190Z,94764.00
2023-06-11T08:59:13.192Z,94765.00
2023-06-11T09:00:13.512Z,94766.00
2023-06-11T09:01:13.253Z,94764.00
2023-06-11T09:02:13.298Z,94762.00
2023-06-11T09:03:13.369Z,94763.00
2023-06-11T09:04:13.384Z,94759.00
2023-06-11T09:05:13.423Z,94758.00
2023-06-11T09:06:13.420Z,94758.00
2023-06-11T09:07:13.448Z,94756.00
2023-06-11T09:08:13.532Z,94756.00
2023-06-11T09:09:13.465Z,94758.00
2023-06-11T09:10:13.613Z,94753.00
2023-06-11T09:11:13.554Z,94758.00
2023-06-11T09:12:13.568Z,94753.00
2023-06-11T09:13:13.621Z,94752.00
2023-06-11T09:14:13.628Z,94752.00
2023-06-11T09:15:13.664Z,94755.00
2023-06-11T09:16:13.771Z,94752.00
2023-06-11T09:17:13.725Z,94753.00
2023-06-11T09:18:13.838Z,94753.00
2023-06-11T09:19:13.814Z,94754.00
2023-06-11T09:20:14.259Z,94753.00
2023-06-11T09:21:13.865Z,94756.00
2023-06-11T09:22:13.914Z,94753.00
2023-06-11T09:23:13.912Z,94754.00
2023-06-11T09:24:13.985Z,94750.00
2023-06-11T09:25:14.204Z,94756.00
2023-06-11T09:26:14.051Z,94752.00
2023-06-11T09:27:14.083Z,94756.00
2023-06-11T09:28:14.091Z,94755.00
2023-06-11T09:29:14.150Z,94749.00
2023-06-11T09:30:14.573Z,94752.00
2023-06-11T09:31:14.204Z,94753.00
2023-06-11T09:32:32.503Z,94753.00
2023-06-11T09:33:15.299Z,94750.00
2023-06-11T09:34:14.220Z,94747.00
2023-06-11T09:35:14.207Z,94747.00
2023-06-11T09:36:14.247Z,94750.00
2023-06-11T09:37:14.193Z,94750.00
2023-06-11T09:38:14.208Z,94752.00
2023-06-11T09:39:14.197Z,94753.00
2023-06-11T09:40:14.289Z,94755.00
2023-06-11T09:41:14.160Z,94755.00
2023-06-11T09:42:14.177Z,94754.00
2023-06-11T09:43:14.184Z,94754.00
2023-06-11T09:44:14.128Z,94754.00
2023-06-11T09:45:14.141Z,94749.00
2023-06-11T09:46:14.226Z,94748.00
2023-06-11T09:47:14.156Z,94746.00
2023-06-11T09:48:14.159Z,94748.00
2023-06-11T09:49:14.171Z,94750.00
2023-06-11T09:50:14.297Z,94750.00
2023-06-11T09:51:14.232Z,94753.00
2023-06-11T09:52:14.271Z,94746.00
2023-06-11T09:53:14.294Z,94753.00
2023-06-11T09:54:14.313Z,94755.00
2023-06-11T09:55:14.387Z,94753.00
2023-06-11T09:56:14.423Z,94752.00
2023-06-11T09:57:14.425Z,94756.00
2023-06-11T09:58:14.469Z,94754.00
2023-06-11T09:59:14.474Z,94750.00
2023-06-11T10:00:15.357Z,94749.00
2023-06-11T10:01:14.546Z,94751.00
2023-06-11T10:02:14.570Z,94746.00
2023-06-11T10:03:14.670Z,94745.00
2023-06-11T10:04:14.681Z,94744.00
2023-06-11T10:05:14.898Z,94751.00
2023-06-11T10:06:17.014Z,94757.00
2023-06-11T10:07:14.672Z,94750.00
2023-06-11T10:08:14.682Z,94749.00
2023-06-11T10:09:14.645Z,94746.00
2023-06-11T10:10:14.663Z,94744.00
2023-06-11T10:11:14.683Z,94743.00
2023-06-11T10:12:17.151Z,94743.00
2023-06-11T10:13:14.650Z,94741.00
2023-06-11T10:14:14.673Z,94740.00
2023-06-11T10:15:14.720Z,94739.00
2023-06-11T10:16:14.631Z,94741.00
2023-06-11T10:17:14.609Z,94735.00
2023-06-11T10:18:14.677Z,94738.00
2023-06-11T10:19:14.625Z,94736.00
2023-06-11T10:20:14.656Z,94738.00
2023-06-11T10:21:14.618Z,94735.00
2023-06-11T10:22:14.555Z,94738.00
2023-06-11T10:23:14.617Z,94732.00
2023-06-11T10:24:14.586Z,94735.00
2023-06-11T10:25:14.548Z,94734.00
2023-06-11T10:26:14.613Z,94737.00
2023-06-11T10:27:14.591Z,94733.00
2023-06-11T10:28:14.633Z,94730.00
2023-06-11T10:29:14.559Z,94736.00
2023-06-11T10:30:14.702Z,94734.00
2023-06-11T10:31:14.570Z,94739.00
2023-06-11T10:32:14.566Z,94734.00
2023-06-11T10:33:14.621Z,94733.00
2023-06-11T10:34:15.070Z,94736.00
2023-06-11T10:35:14.580Z,94734.00
2023-06-11T10:36:14.487Z,94736.00
2023-06-11T10:37:14.489Z,94736.00
2023-06-11T10:38:14.519Z,94736.00
2023-06-11T10:39:14.510Z,94737.00
2023-06-11T10:40:15.977Z,94735.00
2023-06-11T10:41:14.481Z,94734.00
2023-06-11T10:42:14.472Z,94737.00
2023-06-11T10:43:14.453Z,94729.00
2023-06-11T10:44:14.443Z,94733.00
2023-06-11T10:45:14.482Z,94730.00
2023-06-11T10:46:14.473Z,94725.00
2023-06-11T10:47:14.428Z,94721.00
2023-06-11T10:48:14.461Z,94720.00
2023-06-11T10:49:15.172Z,94721.00
2023-06-11T10:50:14.709Z,94720.00
2023-06-11T10:51:14.447Z,94718.00
2023-06-11T10:52:14.434Z,94721.00
2023-06-11T10:53:14.680Z,94718.00
2023-06-11T10:54:14.419Z,94714.00
2023-06-11T10:55:14.398Z,94710.00
2023-06-11T10:56:14.472Z,94712.00
2023-06-11T10:57:14.390Z,94709.00
2023-06-11T10:58:16.716Z,94708.00
2023-06-11T10:59:14.378Z,94710.00
2023-06-11T11:00:14.350Z,94706.00
2023-06-11T11:01:14.360Z,94703.00
2023-06-11T11:02:14.412Z,94703.00
2023-06-11T11:03:14.414Z,94701.00
2023-06-11T11:04:14.437Z,94703.00
2023-06-11T11:05:14.708Z,94699.00
2023-06-11T11:06:14.353Z,94694.00
2023-06-11T11:07:14.308Z,94699.00
2023-06-11T11:08:16.798Z,94702.00
2023-06-11T11:09:14.323Z,94698.00
2023-06-11T11:10:14.390Z,94697.00
2023-06-11T11:11:14.293Z,94702.00
2023-06-11T11:12:14.274Z,94698.00
2023-06-11T11:13:14.308Z,94702.00
2023-06-11T11:14:14.260Z,94697.00
2023-06-11T11:15:14.265Z,94695.00
2023-06-11T11:16:14.277Z,94696.00
2023-06-11T11:17:14.266Z,94694.00
2023-06-11T11:18:14.228Z,94695.00
2023-06-11T11:19:16.547Z,94691.00
2023-06-11T11:20:14.468Z,94692.00
2023-06-11T11:21:14.481Z,94687.00
2023-06-11T11:22:14.512Z,94688.00
2023-06-11T11:23:14.483Z,94687.00
2023-06-11T11:24:14.524Z,94689.00
2023-06-11T11:25:14.580Z,94685.00
2023-06-11T11:26:14.551Z,94683.00
2023-06-11T11:27:14.576Z,94682.00
2023-06-11T11:28:14.613Z,94679.00
2023-06-11T11:29:14.676Z,94679.00
2023-06-11T11:30:14.788Z,94681.00
2023-06-11T11:31:14.727Z,94678.00
2023-06-11T11:32:14.835Z,94678.00
2023-06-11T11:33:14.811Z,94677.00
2023-06-11T11:34:14.744Z,94675.00
2023-06-11T11:35:14.858Z,94675.00
2023-06-11T11:36:14.816Z,94673.00
2023-06-11T11:37:14.861Z,94676.00
2023-06-11T11:38:14.946Z,94669.00
2023-06-11T11:39:15.073Z,94665.00
2023-06-11T11:40:15.423Z,94670.00
2023-06-11T11:41:15.012Z,94661.00
2023-06-11T11:42:15.056Z,94664.00
2023-06-11T11:43:15.073Z,94664.00
2023-06-11T11:44:15.120Z,94662.00
2023-06-11T11:45:15.156Z,94661.00